QLK876 YBBN-YBMK
Flight info
| Callsign | QLK876 |
|---|---|
| Flight time | 1h 32m |
| Altitude | 30000 |
| Route | BN Q67 RUNLA Q493 EMSUP/N0418F200 V308 MK |
| Aircraft | B462/M-SDFGIRWY/LB1 |
Departure
| Time | 2026-05-07 18:08 |
|---|---|
| Airport | Brisbane International Airport (YBBN) |
Arrival
| Time | 2026-05-07 19:40 |
|---|---|
| Airport | Mackay Airport (YBMK) |
| Time | Latitude | Longitude | Altitude | Speed | Heading |
|---|---|---|---|---|---|
| 2026-05-07 17:41 | -27.38244 | 153.12181 | 19 ft | 0 kts | 192° |
| 2026-05-07 17:57 | -27.38231 | 153.12184 | 18 ft | 4 kts | 193° |
| 2026-05-07 17:57 | -27.38204 | 153.12191 | 17 ft | 4 kts | 190° |
| 2026-05-07 17:58 | -27.38178 | 153.12193 | 17 ft | 4 kts | 171° |
| 2026-05-07 17:58 | -27.38162 | 153.12183 | 17 ft | 2 kts | 126° |
| 2026-05-07 17:58 | -27.38173 | 153.12209 | 18 ft | 3 kts | 116° |
| 2026-05-07 17:58 | -27.38174 | 153.12212 | 18 ft | 0 kts | 117° |
| 2026-05-07 18:02 | -27.38175 | 153.12213 | 17 ft | 1 kts | 117° |
| 2026-05-07 18:02 | -27.38183 | 153.12232 | 18 ft | 6 kts | 117° |
| 2026-05-07 18:02 | -27.38206 | 153.12284 | 19 ft | 8 kts | 110° |
| 2026-05-07 18:03 | -27.38225 | 153.12347 | 17 ft | 9 kts | 115° |
| 2026-05-07 18:03 | -27.38259 | 153.12422 | 17 ft | 12 kts | 117° |
| 2026-05-07 18:03 | -27.38302 | 153.12515 | 17 ft | 15 kts | 118° |
| 2026-05-07 18:03 | -27.38373 | 153.12606 | 18 ft | 15 kts | 118° |
| 2026-05-07 18:04 | -27.38350 | 153.12696 | 18 ft | 12 kts | 33° |
| 2026-05-07 18:04 | -27.38273 | 153.12741 | 18 ft | 13 kts | 27° |
| 2026-05-07 18:04 | -27.38183 | 153.12793 | 19 ft | 16 kts | 27° |
| 2026-05-07 18:04 | -27.38082 | 153.12852 | 18 ft | 17 kts | 28° |
| 2026-05-07 18:05 | -27.38054 | 153.12952 | 20 ft | 14 kts | 121° |
| 2026-05-07 18:05 | -27.38064 | 153.12971 | 19 ft | 0 kts | 121° |
| 2026-05-07 18:06 | -27.38068 | 153.12978 | 19 ft | 4 kts | 121° |
| 2026-05-07 18:06 | -27.38099 | 153.13023 | 21 ft | 11 kts | 145° |
| 2026-05-07 18:06 | -27.38166 | 153.13029 | 21 ft | 9 kts | 196° |
| 2026-05-07 18:07 | -27.38180 | 153.13022 | 22 ft | 4 kts | 206° |
| 2026-05-07 18:07 | -27.38405 | 153.12896 | 23 ft | 66 kts | 206° |
| 2026-05-07 18:07 | -27.38978 | 153.12566 | 20 ft | 117 kts | 207° |
| 2026-05-07 18:07 | -27.39787 | 153.12089 | 160 ft | 141 kts | 209° |
| 2026-05-07 18:08 | -27.40662 | 153.11568 | 518 ft | 141 kts | 210° |
| 2026-05-07 18:08 | -27.41535 | 153.11042 | 823 ft | 146 kts | 209° |
| 2026-05-07 18:08 | -27.42442 | 153.10526 | 1191 ft | 144 kts | 206° |
| 2026-05-07 18:08 | -27.43336 | 153.10052 | 1715 ft | 139 kts | 204° |
| 2026-05-07 18:09 | -27.44191 | 153.09600 | 2223 ft | 137 kts | 203° |
| 2026-05-07 18:09 | -27.45061 | 153.09135 | 2807 ft | 136 kts | 202° |
| 2026-05-07 18:09 | -27.45915 | 153.08673 | 3304 ft | 141 kts | 202° |
| 2026-05-07 18:09 | -27.46856 | 153.08119 | 3524 ft | 163 kts | 206° |
| 2026-05-07 18:10 | -27.47645 | 153.07108 | 3714 ft | 190 kts | 245° |
| 2026-05-07 18:10 | -27.47830 | 153.05523 | 3863 ft | 219 kts | 262° |
| 2026-05-07 18:10 | -27.47901 | 153.03697 | 3998 ft | 245 kts | 264° |
| 2026-05-07 18:10 | -27.47946 | 153.01799 | 4651 ft | 241 kts | 265° |
| 2026-05-07 18:11 | -27.47990 | 152.99905 | 5188 ft | 243 kts | 265° |
| 2026-05-07 18:11 | -27.48049 | 152.98008 | 5716 ft | 242 kts | 265° |
| 2026-05-07 18:11 | -27.48126 | 152.96118 | 6239 ft | 241 kts | 265° |
| 2026-05-07 18:11 | -27.48196 | 152.94232 | 6715 ft | 242 kts | 271° |
| 2026-05-07 18:12 | -27.47669 | 152.92439 | 7101 ft | 249 kts | 304° |
| 2026-05-07 18:12 | -27.46308 | 152.91211 | 7482 ft | 258 kts | 333° |
| 2026-05-07 18:12 | -27.44609 | 152.90516 | 7862 ft | 262 kts | 342° |
| 2026-05-07 18:12 | -27.42773 | 152.90429 | 8264 ft | 271 kts | 11° |
| 2026-05-07 18:13 | -27.41077 | 152.91370 | 8676 ft | 277 kts | 40° |
| 2026-05-07 18:13 | -27.39736 | 152.92940 | 9106 ft | 280 kts | 49° |
| 2026-05-07 18:13 | -27.38502 | 152.94646 | 9545 ft | 282 kts | 52° |
| 2026-05-07 18:13 | -27.37325 | 152.96429 | 9976 ft | 285 kts | 54° |
| 2026-05-07 18:14 | -27.36184 | 152.98263 | 10399 ft | 287 kts | 56° |
| 2026-05-07 18:14 | -27.35054 | 153.00126 | 10783 ft | 291 kts | 56° |
| 2026-05-07 18:14 | -27.33882 | 153.02060 | 10870 ft | 307 kts | 56° |
| 2026-05-07 18:14 | -27.32658 | 153.04072 | 11093 ft | 312 kts | 56° |
| 2026-05-07 18:15 | -27.31420 | 153.06085 | 11451 ft | 314 kts | 55° |
| 2026-05-07 18:15 | -27.30161 | 153.08106 | 11798 ft | 316 kts | 54° |
| 2026-05-07 18:15 | -27.28872 | 153.10119 | 12145 ft | 318 kts | 49° |
| 2026-05-07 18:15 | -27.27284 | 153.11853 | 12496 ft | 319 kts | 39° |
| 2026-05-07 18:16 | -27.25595 | 153.13436 | 12843 ft | 322 kts | 38° |
| 2026-05-07 18:16 | -27.23835 | 153.15056 | 13210 ft | 324 kts | 37° |
| 2026-05-07 18:16 | -27.22089 | 153.16668 | 13585 ft | 325 kts | 36° |
| 2026-05-07 18:16 | -27.20164 | 153.17897 | 13922 ft | 323 kts | 17° |
| 2026-05-07 18:17 | -27.18029 | 153.18684 | 14260 ft | 323 kts | 14° |
| 2026-05-07 18:17 | -27.15871 | 153.19410 | 14612 ft | 324 kts | 13° |
| 2026-05-07 18:17 | -27.13699 | 153.20111 | 14972 ft | 325 kts | 12° |
| 2026-05-07 18:17 | -27.11521 | 153.20822 | 15329 ft | 327 kts | 12° |
| 2026-05-07 18:18 | -27.09335 | 153.21546 | 15699 ft | 327 kts | 12° |
| 2026-05-07 18:18 | -27.07151 | 153.22280 | 16066 ft | 328 kts | 12° |
| 2026-05-07 18:18 | -27.04959 | 153.23027 | 16416 ft | 330 kts | 12° |
| 2026-05-07 18:18 | -27.02762 | 153.23783 | 16765 ft | 330 kts | 11° |
| 2026-05-07 18:19 | -27.00518 | 153.24166 | 17085 ft | 324 kts | 357° |
| 2026-05-07 18:19 | -26.98262 | 153.24211 | 17420 ft | 325 kts | 355° |
| 2026-05-07 18:19 | -26.96003 | 153.24219 | 17765 ft | 325 kts | 354° |
| 2026-05-07 18:19 | -26.93739 | 153.24206 | 18105 ft | 326 kts | 354° |
| 2026-05-07 18:20 | -26.91466 | 153.24197 | 18430 ft | 327 kts | 354° |
| 2026-05-07 18:20 | -26.89189 | 153.24211 | 18713 ft | 328 kts | 354° |
| 2026-05-07 18:20 | -26.86906 | 153.24239 | 19002 ft | 329 kts | 354° |
| 2026-05-07 18:20 | -26.84620 | 153.24284 | 19279 ft | 329 kts | 354° |
| 2026-05-07 18:21 | -26.82332 | 153.24338 | 19581 ft | 328 kts | 354° |
| 2026-05-07 18:21 | -26.80052 | 153.24386 | 19869 ft | 328 kts | 353° |
| 2026-05-07 18:21 | -26.77768 | 153.24441 | 20134 ft | 329 kts | 353° |
| 2026-05-07 18:21 | -26.75474 | 153.24503 | 20401 ft | 330 kts | 353° |
| 2026-05-07 18:22 | -26.73179 | 153.24554 | 20651 ft | 331 kts | 353° |
| 2026-05-07 18:22 | -26.71656 | 153.24588 | 20812 ft | 331 kts | 352° |
| 2026-05-07 18:22 | -26.68611 | 153.24602 | 21124 ft | 326 kts | 344° |
| 2026-05-07 18:22 | -26.66448 | 153.24041 | 21353 ft | 317 kts | 335° |
| 2026-05-07 18:23 | -26.64345 | 153.23301 | 21601 ft | 317 kts | 334° |
| 2026-05-07 18:23 | -26.62253 | 153.22537 | 21863 ft | 316 kts | 333° |
| 2026-05-07 18:23 | -26.60163 | 153.21758 | 22123 ft | 316 kts | 333° |
| 2026-05-07 18:23 | -26.58075 | 153.20975 | 22379 ft | 317 kts | 333° |
| 2026-05-07 18:24 | -26.55977 | 153.20213 | 22629 ft | 318 kts | 333° |
| 2026-05-07 18:24 | -26.53873 | 153.19472 | 22918 ft | 317 kts | 333° |
| 2026-05-07 18:24 | -26.51763 | 153.18748 | 23169 ft | 317 kts | 333° |
| 2026-05-07 18:24 | -26.49656 | 153.18011 | 23414 ft | 318 kts | 332° |
| 2026-05-07 18:25 | -26.47545 | 153.17271 | 23660 ft | 318 kts | 332° |
| 2026-05-07 18:25 | -26.45434 | 153.16533 | 23866 ft | 319 kts | 332° |
| 2026-05-07 18:25 | -26.43315 | 153.15797 | 24058 ft | 319 kts | 332° |
| 2026-05-07 18:25 | -26.41192 | 153.15060 | 24249 ft | 320 kts | 332° |
| 2026-05-07 18:26 | -26.39065 | 153.14325 | 24445 ft | 321 kts | 332° |
| 2026-05-07 18:26 | -26.36929 | 153.13588 | 24631 ft | 321 kts | 332° |
| 2026-05-07 18:26 | -26.34792 | 153.12855 | 24832 ft | 322 kts | 333° |
| 2026-05-07 18:26 | -26.32645 | 153.12120 | 25008 ft | 323 kts | 333° |
| 2026-05-07 18:27 | -26.30495 | 153.11381 | 25196 ft | 324 kts | 332° |
| 2026-05-07 18:27 | -26.28339 | 153.10639 | 25379 ft | 323 kts | 331° |
| 2026-05-07 18:27 | -26.26376 | 153.09565 | 25519 ft | 310 kts | 317° |
| 2026-05-07 18:27 | -26.25223 | 153.08648 | 25699 ft | 306 kts | 315° |
| 2026-05-07 18:28 | -26.22950 | 153.06744 | 25935 ft | 306 kts | 315° |
| 2026-05-07 18:28 | -26.21258 | 153.05301 | 26139 ft | 306 kts | 315° |
| 2026-05-07 18:28 | -26.19570 | 153.03850 | 26321 ft | 307 kts | 315° |
| 2026-05-07 18:28 | -26.17864 | 153.02406 | 26492 ft | 308 kts | 315° |
| 2026-05-07 18:29 | -26.16150 | 153.00965 | 26666 ft | 309 kts | 315° |
| 2026-05-07 18:29 | -26.14429 | 152.99526 | 26849 ft | 310 kts | 315° |
| 2026-05-07 18:29 | -26.12688 | 152.98101 | 27024 ft | 311 kts | 316° |
| 2026-05-07 18:29 | -26.10942 | 152.96679 | 27190 ft | 312 kts | 316° |
| 2026-05-07 18:30 | -26.09206 | 152.95280 | 27365 ft | 313 kts | 316° |
| 2026-05-07 18:30 | -26.07436 | 152.93867 | 27531 ft | 313 kts | 316° |
| 2026-05-07 18:30 | -26.05660 | 152.92457 | 27691 ft | 314 kts | 316° |
| 2026-05-07 18:30 | -26.03877 | 152.91044 | 27845 ft | 315 kts | 316° |
| 2026-05-07 18:31 | -26.02099 | 152.89620 | 28008 ft | 315 kts | 316° |
| 2026-05-07 18:31 | -26.00320 | 152.88191 | 28153 ft | 316 kts | 316° |
| 2026-05-07 18:31 | -25.98537 | 152.86758 | 28304 ft | 317 kts | 316° |
| 2026-05-07 18:31 | -25.96747 | 152.85323 | 28456 ft | 317 kts | 316° |
| 2026-05-07 18:32 | -25.94954 | 152.83888 | 28602 ft | 318 kts | 316° |
| 2026-05-07 18:32 | -25.93158 | 152.82449 | 28706 ft | 319 kts | 316° |
| 2026-05-07 18:32 | -25.91360 | 152.81007 | 28840 ft | 319 kts | 316° |
| 2026-05-07 18:32 | -25.89555 | 152.79568 | 28967 ft | 320 kts | 316° |
| 2026-05-07 18:33 | -25.87743 | 152.78127 | 29095 ft | 320 kts | 316° |
| 2026-05-07 18:33 | -25.85930 | 152.76688 | 29216 ft | 321 kts | 316° |
| 2026-05-07 18:33 | -25.84114 | 152.75242 | 29327 ft | 321 kts | 316° |
| 2026-05-07 18:33 | -25.82302 | 152.73792 | 29442 ft | 322 kts | 316° |
| 2026-05-07 18:34 | -25.80483 | 152.72339 | 29551 ft | 322 kts | 316° |
| 2026-05-07 18:34 | -25.78661 | 152.70884 | 29668 ft | 323 kts | 316° |
| 2026-05-07 18:34 | -25.76836 | 152.69428 | 29780 ft | 324 kts | 316° |
| 2026-05-07 18:34 | -25.75008 | 152.67970 | 29883 ft | 324 kts | 316° |
| 2026-05-07 18:35 | -25.73171 | 152.66508 | 29972 ft | 326 kts | 316° |
| 2026-05-07 18:35 | -25.69473 | 152.63563 | 30100 ft | 329 kts | 316° |
| 2026-05-07 18:36 | -25.65720 | 152.60583 | 30123 ft | 335 kts | 316° |
| 2026-05-07 18:36 | -25.61899 | 152.57541 | 30124 ft | 341 kts | 316° |
| 2026-05-07 18:37 | -25.58034 | 152.54450 | 30123 ft | 344 kts | 316° |
| 2026-05-07 18:37 | -25.54174 | 152.51337 | 30136 ft | 347 kts | 316° |
| 2026-05-07 18:38 | -25.50234 | 152.48192 | 30137 ft | 351 kts | 317° |
| 2026-05-07 18:38 | -25.46243 | 152.45037 | 30135 ft | 354 kts | 317° |
| 2026-05-07 18:39 | -25.42216 | 152.41854 | 30137 ft | 357 kts | 317° |
| 2026-05-07 18:39 | -25.38157 | 152.38642 | 30138 ft | 359 kts | 317° |
| 2026-05-07 18:40 | -25.34085 | 152.35432 | 30139 ft | 360 kts | 317° |
| 2026-05-07 18:40 | -25.30008 | 152.32209 | 30137 ft | 361 kts | 317° |
| 2026-05-07 18:41 | -25.25921 | 152.28987 | 30110 ft | 361 kts | 317° |
| 2026-05-07 18:41 | -25.21841 | 152.25768 | 30135 ft | 361 kts | 317° |
| 2026-05-07 18:42 | -25.17754 | 152.22548 | 30140 ft | 361 kts | 317° |
| 2026-05-07 18:42 | -25.13674 | 152.19337 | 30149 ft | 361 kts | 317° |
| 2026-05-07 18:43 | -25.09581 | 152.16115 | 30143 ft | 362 kts | 317° |
| 2026-05-07 18:43 | -25.05485 | 152.12888 | 30141 ft | 362 kts | 317° |
| 2026-05-07 18:44 | -25.01388 | 152.09660 | 30140 ft | 362 kts | 317° |
| 2026-05-07 18:44 | -24.97293 | 152.06433 | 30139 ft | 362 kts | 317° |
| 2026-05-07 18:45 | -24.93201 | 152.03202 | 30144 ft | 362 kts | 317° |
| 2026-05-07 18:45 | -24.89106 | 151.99970 | 30144 ft | 362 kts | 317° |
| 2026-05-07 18:46 | -24.85684 | 151.97299 | 30138 ft | 363 kts | 317° |
| 2026-05-07 18:46 | -24.80903 | 151.93570 | 30137 ft | 363 kts | 317° |
| 2026-05-07 18:47 | -24.76791 | 151.90364 | 30146 ft | 362 kts | 317° |
| 2026-05-07 18:47 | -24.72676 | 151.87158 | 30146 ft | 363 kts | 317° |
| 2026-05-07 18:48 | -24.69223 | 151.84475 | 30145 ft | 363 kts | 317° |
| 2026-05-07 18:48 | -24.65131 | 151.81291 | 30137 ft | 363 kts | 317° |
| 2026-05-07 18:49 | -24.61011 | 151.78093 | 30118 ft | 362 kts | 317° |
| 2026-05-07 18:49 | -24.56898 | 151.74900 | 30148 ft | 362 kts | 317° |
| 2026-05-07 18:50 | -24.52786 | 151.71705 | 30142 ft | 362 kts | 317° |
| 2026-05-07 18:50 | -24.48667 | 151.68514 | 30144 ft | 362 kts | 317° |
| 2026-05-07 18:51 | -24.44547 | 151.65325 | 30139 ft | 363 kts | 317° |
| 2026-05-07 18:51 | -24.40427 | 151.62132 | 30137 ft | 362 kts | 317° |
| 2026-05-07 18:52 | -24.36297 | 151.58956 | 30144 ft | 362 kts | 317° |
| 2026-05-07 18:52 | -24.32175 | 151.55771 | 30133 ft | 362 kts | 317° |
| 2026-05-07 18:53 | -24.28053 | 151.52585 | 30113 ft | 362 kts | 317° |
| 2026-05-07 18:53 | -24.23938 | 151.49399 | 30131 ft | 362 kts | 317° |
| 2026-05-07 18:54 | -24.19817 | 151.46222 | 30131 ft | 363 kts | 317° |
| 2026-05-07 18:54 | -24.15709 | 151.43022 | 30145 ft | 362 kts | 317° |
| 2026-05-07 18:55 | -24.11603 | 151.39883 | 30137 ft | 363 kts | 317° |
| 2026-05-07 18:55 | -24.07459 | 151.36721 | 30121 ft | 363 kts | 317° |
| 2026-05-07 18:56 | -24.03326 | 151.33544 | 30128 ft | 363 kts | 317° |
| 2026-05-07 18:56 | -23.99188 | 151.30370 | 30131 ft | 364 kts | 317° |
| 2026-05-07 18:57 | -23.95049 | 151.27191 | 30077 ft | 364 kts | 318° |
| 2026-05-07 18:57 | -23.90918 | 151.24032 | 30113 ft | 361 kts | 316° |
| 2026-05-07 18:58 | -23.86830 | 151.20840 | 30133 ft | 363 kts | 319° |
| 2026-05-07 18:58 | -23.82509 | 151.17928 | 30139 ft | 366 kts | 321° |
| 2026-05-07 18:59 | -23.78098 | 151.15135 | 30139 ft | 367 kts | 321° |
| 2026-05-07 18:59 | -23.73696 | 151.12320 | 30135 ft | 367 kts | 321° |
| 2026-05-07 19:00 | -23.69294 | 151.09497 | 30135 ft | 367 kts | 322° |
| 2026-05-07 19:00 | -23.64892 | 151.06666 | 30132 ft | 367 kts | 321° |
| 2026-05-07 19:01 | -23.60517 | 151.03864 | 30123 ft | 368 kts | 322° |
| 2026-05-07 19:01 | -23.56104 | 151.01040 | 30126 ft | 368 kts | 322° |
| 2026-05-07 19:02 | -23.51688 | 150.98220 | 30120 ft | 368 kts | 322° |
| 2026-05-07 19:02 | -23.47264 | 150.95398 | 30125 ft | 368 kts | 322° |
| 2026-05-07 19:03 | -23.42839 | 150.92578 | 30121 ft | 369 kts | 321° |
| 2026-05-07 19:03 | -23.38410 | 150.89755 | 30129 ft | 369 kts | 322° |
| 2026-05-07 19:04 | -23.33977 | 150.86931 | 30119 ft | 369 kts | 322° |
| 2026-05-07 19:04 | -23.29539 | 150.84112 | 30108 ft | 369 kts | 322° |
| 2026-05-07 19:05 | -23.25108 | 150.81293 | 30126 ft | 369 kts | 322° |
| 2026-05-07 19:05 | -23.20669 | 150.78472 | 30129 ft | 370 kts | 322° |
| 2026-05-07 19:06 | -23.16225 | 150.75654 | 30119 ft | 370 kts | 322° |
| 2026-05-07 19:06 | -23.09553 | 150.71423 | 30127 ft | 370 kts | 322° |
| 2026-05-07 19:07 | -23.05100 | 150.68600 | 30132 ft | 371 kts | 322° |
| 2026-05-07 19:07 | -23.00673 | 150.65796 | 30125 ft | 372 kts | 322° |
| 2026-05-07 19:08 | -22.96201 | 150.62972 | 30135 ft | 371 kts | 322° |
| 2026-05-07 19:08 | -22.91735 | 150.60144 | 30108 ft | 372 kts | 322° |
| 2026-05-07 19:09 | -22.87284 | 150.57314 | 30052 ft | 370 kts | 321° |
| 2026-05-07 19:09 | -22.82858 | 150.54478 | 30132 ft | 370 kts | 322° |
| 2026-05-07 19:10 | -22.78418 | 150.51653 | 30126 ft | 371 kts | 322° |
| 2026-05-07 19:10 | -22.73967 | 150.48827 | 30128 ft | 371 kts | 322° |
| 2026-05-07 19:11 | -22.69499 | 150.46012 | 30121 ft | 371 kts | 322° |
| 2026-05-07 19:11 | -22.65034 | 150.43209 | 30084 ft | 371 kts | 322° |
| 2026-05-07 19:12 | -22.60566 | 150.40422 | 30105 ft | 370 kts | 322° |
| 2026-05-07 19:12 | -22.56112 | 150.37616 | 30112 ft | 370 kts | 322° |
| 2026-05-07 19:13 | -22.51651 | 150.34824 | 30103 ft | 370 kts | 322° |
| 2026-05-07 19:13 | -22.47230 | 150.32046 | 30116 ft | 370 kts | 322° |
| 2026-05-07 19:14 | -22.42780 | 150.29248 | 30119 ft | 370 kts | 322° |
| 2026-05-07 19:14 | -22.38323 | 150.26461 | 30112 ft | 370 kts | 322° |
| 2026-05-07 19:15 | -22.33862 | 150.23668 | 30115 ft | 371 kts | 323° |
| 2026-05-07 19:15 | -22.29399 | 150.20885 | 30113 ft | 370 kts | 323° |
| 2026-05-07 19:16 | -22.25048 | 150.17960 | 30117 ft | 364 kts | 315° |
| 2026-05-07 19:16 | -22.21273 | 150.14364 | 30115 ft | 361 kts | 312° |
| 2026-05-07 19:17 | -22.17541 | 150.10728 | 30114 ft | 362 kts | 313° |
| 2026-05-07 19:17 | -22.13753 | 150.07140 | 30114 ft | 363 kts | 313° |
| 2026-05-07 19:18 | -22.09920 | 150.03569 | 29793 ft | 370 kts | 314° |
| 2026-05-07 19:18 | -22.07950 | 150.01735 | 29295 ft | 377 kts | 314° |
| 2026-05-07 19:18 | -22.05940 | 149.99891 | 28807 ft | 382 kts | 315° |
| 2026-05-07 19:19 | -22.03902 | 149.98023 | 28325 ft | 386 kts | 315° |
| 2026-05-07 19:19 | -22.01901 | 149.96181 | 27856 ft | 379 kts | 315° |
| 2026-05-07 19:19 | -21.99927 | 149.94356 | 27373 ft | 369 kts | 315° |
| 2026-05-07 19:19 | -21.98005 | 149.92573 | 26882 ft | 360 kts | 315° |
| 2026-05-07 19:20 | -21.96132 | 149.90824 | 26417 ft | 353 kts | 315° |
| 2026-05-07 19:20 | -21.94289 | 149.89115 | 25957 ft | 346 kts | 315° |
| 2026-05-07 19:20 | -21.92475 | 149.87449 | 25502 ft | 340 kts | 315° |
| 2026-05-07 19:20 | -21.90690 | 149.85807 | 25062 ft | 335 kts | 315° |
| 2026-05-07 19:21 | -21.88921 | 149.84168 | 24652 ft | 337 kts | 315° |
| 2026-05-07 19:21 | -21.87138 | 149.82500 | 24259 ft | 342 kts | 315° |
| 2026-05-07 19:21 | -21.85329 | 149.80817 | 23877 ft | 346 kts | 316° |
| 2026-05-07 19:21 | -21.83494 | 149.79122 | 23446 ft | 349 kts | 316° |
| 2026-05-07 19:22 | -21.81645 | 149.77412 | 22985 ft | 352 kts | 316° |
| 2026-05-07 19:22 | -21.79778 | 149.75689 | 22527 ft | 355 kts | 316° |
| 2026-05-07 19:22 | -21.77905 | 149.73957 | 22082 ft | 357 kts | 316° |
| 2026-05-07 19:22 | -21.76019 | 149.72211 | 21643 ft | 359 kts | 316° |
| 2026-05-07 19:23 | -21.74122 | 149.70454 | 21207 ft | 360 kts | 316° |
| 2026-05-07 19:23 | -21.72208 | 149.68706 | 20778 ft | 362 kts | 317° |
| 2026-05-07 19:23 | -21.70293 | 149.66942 | 20349 ft | 363 kts | 317° |
| 2026-05-07 19:23 | -21.68362 | 149.65183 | 19930 ft | 363 kts | 317° |
| 2026-05-07 19:24 | -21.66446 | 149.63424 | 19513 ft | 362 kts | 316° |
| 2026-05-07 19:24 | -21.64535 | 149.61667 | 19101 ft | 360 kts | 317° |
| 2026-05-07 19:24 | -21.62568 | 149.60002 | 18703 ft | 360 kts | 321° |
| 2026-05-07 19:24 | -21.60514 | 149.58465 | 18283 ft | 359 kts | 322° |
| 2026-05-07 19:25 | -21.58467 | 149.56996 | 17829 ft | 358 kts | 323° |
| 2026-05-07 19:25 | -21.56379 | 149.55546 | 17366 ft | 357 kts | 324° |
| 2026-05-07 19:25 | -21.54310 | 149.54093 | 16913 ft | 355 kts | 323° |
| 2026-05-07 19:25 | -21.52254 | 149.52641 | 16469 ft | 353 kts | 323° |
| 2026-05-07 19:26 | -21.50212 | 149.51194 | 16027 ft | 351 kts | 323° |
| 2026-05-07 19:26 | -21.48179 | 149.49752 | 15601 ft | 349 kts | 323° |
| 2026-05-07 19:26 | -21.46164 | 149.48319 | 15174 ft | 347 kts | 323° |
| 2026-05-07 19:26 | -21.44154 | 149.46900 | 14750 ft | 345 kts | 324° |
| 2026-05-07 19:27 | -21.42150 | 149.45497 | 14332 ft | 343 kts | 323° |
| 2026-05-07 19:27 | -21.40176 | 149.44089 | 13921 ft | 338 kts | 323° |
| 2026-05-07 19:27 | -21.38228 | 149.42718 | 13453 ft | 332 kts | 324° |
| 2026-05-07 19:27 | -21.36304 | 149.41373 | 12995 ft | 328 kts | 324° |
| 2026-05-07 19:28 | -21.34400 | 149.40034 | 12540 ft | 326 kts | 324° |
| 2026-05-07 19:28 | -21.32512 | 149.38696 | 12093 ft | 325 kts | 324° |
| 2026-05-07 19:28 | -21.30578 | 149.37445 | 11644 ft | 325 kts | 332° |
| 2026-05-07 19:28 | -21.28500 | 149.36487 | 11219 ft | 325 kts | 335° |
| 2026-05-07 19:29 | -21.26386 | 149.35615 | 10791 ft | 325 kts | 338° |
| 2026-05-07 19:29 | -21.24263 | 149.34769 | 10378 ft | 324 kts | 339° |
| 2026-05-07 19:29 | -21.22205 | 149.33984 | 9956 ft | 305 kts | 339° |
| 2026-05-07 19:29 | -21.20241 | 149.33241 | 9472 ft | 297 kts | 339° |
| 2026-05-07 19:30 | -21.18300 | 149.32510 | 9037 ft | 294 kts | 340° |
| 2026-05-07 19:30 | -21.16390 | 149.31786 | 8656 ft | 289 kts | 340° |
| 2026-05-07 19:30 | -21.14504 | 149.31071 | 8282 ft | 285 kts | 341° |
| 2026-05-07 19:30 | -21.12668 | 149.30373 | 7908 ft | 282 kts | 341° |
| 2026-05-07 19:31 | -21.10880 | 149.29546 | 7537 ft | 280 kts | 326° |
| 2026-05-07 19:31 | -21.09433 | 149.28156 | 7187 ft | 279 kts | 316° |
| 2026-05-07 19:31 | -21.08094 | 149.26659 | 6833 ft | 278 kts | 315° |
| 2026-05-07 19:31 | -21.06773 | 149.25146 | 6474 ft | 277 kts | 314° |
| 2026-05-07 19:32 | -21.05474 | 149.23627 | 6100 ft | 277 kts | 314° |
| 2026-05-07 19:32 | -21.04180 | 149.22107 | 5723 ft | 276 kts | 314° |
| 2026-05-07 19:32 | -21.02883 | 149.20593 | 5358 ft | 276 kts | 314° |
| 2026-05-07 19:32 | -21.01611 | 149.19122 | 4990 ft | 264 kts | 314° |
| 2026-05-07 19:33 | -21.00387 | 149.17704 | 4607 ft | 255 kts | 314° |
| 2026-05-07 19:33 | -20.99233 | 149.16299 | 4194 ft | 248 kts | 302° |
| 2026-05-07 19:33 | -20.98747 | 149.14591 | 3825 ft | 238 kts | 265° |
| 2026-05-07 19:33 | -20.99098 | 149.12962 | 3600 ft | 212 kts | 243° |
| 2026-05-07 19:34 | -20.99676 | 149.11612 | 3498 ft | 189 kts | 238° |
| 2026-05-07 19:34 | -21.00282 | 149.10428 | 3410 ft | 173 kts | 233° |
| 2026-05-07 19:34 | -21.00890 | 149.09361 | 3341 ft | 163 kts | 228° |
| 2026-05-07 19:34 | -21.01715 | 149.08715 | 3254 ft | 138 kts | 177° |
| 2026-05-07 19:35 | -21.02579 | 149.08925 | 3294 ft | 133 kts | 156° |
| 2026-05-07 19:35 | -21.03515 | 149.09313 | 3290 ft | 148 kts | 153° |
| 2026-05-07 19:35 | -21.04397 | 149.09777 | 3221 ft | 142 kts | 148° |
| 2026-05-07 19:35 | -21.05232 | 149.10291 | 3090 ft | 130 kts | 147° |
| 2026-05-07 19:36 | -21.05948 | 149.10758 | 2921 ft | 117 kts | 145° |
| 2026-05-07 19:36 | -21.06625 | 149.11223 | 2684 ft | 116 kts | 144° |
| 2026-05-07 19:36 | -21.07292 | 149.11663 | 2380 ft | 108 kts | 148° |
| 2026-05-07 19:36 | -21.07928 | 149.12065 | 2221 ft | 106 kts | 145° |
| 2026-05-07 19:37 | -21.08539 | 149.12526 | 2079 ft | 108 kts | 146° |
| 2026-05-07 19:37 | -21.09169 | 149.12956 | 1887 ft | 106 kts | 149° |
| 2026-05-07 19:37 | -21.09788 | 149.13360 | 1710 ft | 104 kts | 149° |
| 2026-05-07 19:37 | -21.10429 | 149.13777 | 1509 ft | 110 kts | 149° |
| 2026-05-07 19:38 | -21.11093 | 149.14215 | 1349 ft | 113 kts | 150° |
| 2026-05-07 19:38 | -21.11764 | 149.14669 | 1125 ft | 115 kts | 148° |
| 2026-05-07 19:38 | -21.12425 | 149.15141 | 976 ft | 114 kts | 149° |
| 2026-05-07 19:38 | -21.13099 | 149.15595 | 743 ft | 114 kts | 149° |
| 2026-05-07 19:39 | -21.13747 | 149.16042 | 619 ft | 109 kts | 148° |
| 2026-05-07 19:39 | -21.14421 | 149.16473 | 463 ft | 118 kts | 151° |
| 2026-05-07 19:39 | -21.15124 | 149.16934 | 316 ft | 118 kts | 147° |
| 2026-05-07 19:39 | -21.15577 | 149.17249 | 220 ft | 117 kts | 149° |
| 2026-05-07 19:40 | -21.16501 | 149.17870 | 35 ft | 116 kts | 148° |
| 2026-05-07 19:40 | -21.16918 | 149.18150 | 26 ft | 97 kts | 148° |
| 2026-05-07 19:40 | -21.17366 | 149.18452 | 28 ft | 51 kts | 147° |
| 2026-05-07 19:40 | -21.17513 | 149.18528 | 24 ft | 7 kts | 249° |
| 2026-05-07 19:41 | -21.17520 | 149.18476 | 27 ft | 6 kts | 243° |
| 2026-05-07 19:41 | -21.17537 | 149.18444 | 24 ft | 4 kts | 240° |
| 2026-05-07 19:41 | -21.17546 | 149.18430 | 25 ft | 1 kts | 236° |
| 2026-05-07 19:41 | -21.17555 | 149.18415 | 24 ft | 5 kts | 237° |
| 2026-05-07 19:42 | -21.17582 | 149.18370 | 24 ft | 10 kts | 238° |
| 2026-05-07 19:42 | -21.17607 | 149.18337 | 27 ft | 3 kts | 217° |
| 2026-05-07 19:42 | -21.17623 | 149.18326 | 30 ft | 4 kts | 220° |
| 2026-05-07 19:42 | -21.17626 | 149.18302 | 27 ft | 4 kts | 287° |
| 2026-05-07 19:43 | -21.17620 | 149.18281 | 27 ft | 0 kts | 287° |